createdAt,value
2018-06-02T00:00:25.467Z,99867.08
2018-06-02T00:02:51.762Z,99869.67
2018-06-02T00:05:18.085Z,99864.41
2018-06-02T00:07:44.649Z,99862.63
2018-06-02T00:10:10.993Z,99867.16
2018-06-02T00:12:37.318Z,99859.50
2018-06-02T00:15:03.600Z,99859.45
2018-06-02T00:17:30.760Z,99857.64
2018-06-02T00:19:57.776Z,99853.31
2018-06-02T00:22:24.100Z,99856.48
2018-06-02T00:24:50.376Z,99857.75
2018-06-02T00:27:16.663Z,99861.36
2018-06-02T00:29:42.981Z,99855.36
2018-06-02T00:32:09.332Z,99855.14
2018-06-02T00:34:35.615Z,99854.02
2018-06-02T00:37:01.907Z,99849.25
2018-06-02T00:39:28.198Z,99853.80
2018-06-02T00:41:54.512Z,99853.95
2018-06-02T00:44:20.802Z,99848.64
2018-06-02T00:46:47.861Z,99853.71
2018-06-02T00:49:14.875Z,99846.23
2018-06-02T00:51:41.249Z,99845.14
2018-06-02T00:54:07.518Z,99841.11
2018-06-02T00:56:33.786Z,99846.77
2018-06-02T00:59:00.834Z,99857.08
2018-06-02T01:01:27.853Z,99854.83
2018-06-02T01:03:54.155Z,99856.41
2018-06-02T01:06:20.403Z,99851.59
2018-06-02T01:08:46.721Z,99848.14
2018-06-02T01:11:13.993Z,99847.42
2018-06-02T01:13:40.307Z,99847.02
2018-06-02T01:16:06.560Z,99848.84
2018-06-02T01:18:32.842Z,99846.11
2018-06-02T01:20:59.111Z,99844.77
2018-06-02T01:23:25.377Z,99844.14
2018-06-02T01:25:52.421Z,99842.34
2018-06-02T01:28:19.017Z,99842.22
2018-06-02T01:30:45.336Z,99845.88
2018-06-02T01:33:11.636Z,99846.64
2018-06-02T01:35:37.914Z,99846.72
2018-06-02T01:38:04.234Z,99842.39
2018-06-02T01:40:30.506Z,99839.98
2018-06-02T01:42:56.823Z,99842.86
2018-06-02T01:45:23.082Z,99849.59
2018-06-02T01:47:49.350Z,99848.68
2018-06-02T01:50:15.618Z,99848.26
2018-06-02T01:52:41.961Z,99855.83
2018-06-02T01:55:08.995Z,99851.55
2018-06-02T01:57:35.301Z,99850.83
2018-06-02T02:00:01.611Z,99851.21
2018-06-02T02:02:27.893Z,99850.26
2018-06-02T02:04:54.935Z,99858.33
2018-06-02T02:07:21.182Z,99854.66
2018-06-02T02:09:47.478Z,99853.41
2018-06-02T02:12:13.743Z,99868.26
2018-06-02T02:14:40.012Z,99861.11
2018-06-02T02:17:06.299Z,99866.84
2018-06-02T02:19:34.054Z,99867.42
2018-06-02T02:22:00.359Z,99870.50
2018-06-02T02:24:26.662Z,99865.05
2018-06-02T02:26:52.930Z,99870.59
2018-06-02T02:29:19.261Z,99873.53
2018-06-02T02:31:45.573Z,99877.16
2018-06-02T02:34:11.913Z,99866.92
2018-06-02T02:36:38.205Z,99876.78
2018-06-02T02:39:04.503Z,99871.28
2018-06-02T02:41:31.518Z,99871.81
2018-06-02T02:43:57.820Z,99874.53
2018-06-02T02:46:31.100Z,99879.31
2018-06-02T02:48:57.395Z,99882.27
2018-06-02T02:51:23.683Z,99884.93
2018-06-02T02:53:49.972Z,99883.56
2018-06-02T02:56:16.991Z,99891.53
2018-06-02T02:58:43.279Z,99890.99
2018-06-02T03:01:09.565Z,99891.12
2018-06-02T03:03:35.887Z,99887.38
2018-06-02T03:06:02.842Z,99897.73
2018-06-02T03:08:29.179Z,99899.28
2018-06-02T03:10:55.470Z,99887.09
2018-06-02T03:13:21.742Z,99898.41
2018-06-02T03:15:48.767Z,99897.03
2018-06-02T03:18:15.037Z,99904.01
2018-06-02T03:20:42.087Z,99910.66
2018-06-02T03:23:08.420Z,99910.66
2018-06-02T03:25:35.454Z,99914.70
2018-06-02T03:28:03.110Z,99916.98
2018-06-02T03:30:30.875Z,99916.42
2018-06-02T03:32:57.105Z,99920.23
2018-06-02T03:35:24.840Z,99914.01
2018-06-02T03:37:51.145Z,99916.90
2018-06-02T03:40:17.448Z,99919.89
2018-06-02T03:42:44.481Z,99919.86
2018-06-02T03:45:10.774Z,99922.61
2018-06-02T03:47:37.055Z,99926.39
2018-06-02T03:50:04.084Z,99924.64
2018-06-02T03:52:30.450Z,99926.73
2018-06-02T03:54:56.729Z,99931.80
2018-06-02T03:57:23.044Z,99936.67
2018-06-02T03:59:49.287Z,99932.83
2018-06-02T04:02:15.607Z,99933.52
2018-06-02T04:04:41.917Z,99930.34
2018-06-02T04:07:08.176Z,99929.31
2018-06-02T04:09:34.449Z,99929.76
2018-06-02T04:12:01.506Z,99930.50
2018-06-02T04:14:27.821Z,99937.33
2018-06-02T04:16:54.869Z,99939.68
2018-06-02T04:19:22.339Z,99938.78
2018-06-02T04:21:48.631Z,99938.70
2018-06-02T04:24:14.932Z,99936.91
2018-06-02T04:26:41.238Z,99943.38
2018-06-02T04:29:07.546Z,99940.16
2018-06-02T04:31:34.608Z,99949.36
2018-06-02T04:34:00.910Z,99946.33
2018-06-02T04:36:27.195Z,99956.07
2018-06-02T04:38:53.456Z,99954.87
2018-06-02T04:41:19.735Z,99954.89
2018-06-02T04:43:46.891Z,99958.51
2018-06-02T04:46:13.194Z,99957.95
2018-06-02T04:48:40.230Z,99963.73
2018-06-02T04:51:06.494Z,99968.31
2018-06-02T04:53:32.759Z,99966.42
2018-06-02T04:55:59.010Z,99968.03
2018-06-02T04:58:25.339Z,99970.87
2018-06-02T05:00:51.674Z,99971.20
2018-06-02T05:03:17.974Z,99972.56
2018-06-02T05:05:44.246Z,99969.72
2018-06-02T05:08:11.277Z,99963.20
2018-06-02T05:10:37.784Z,99969.95
2018-06-02T05:13:04.124Z,99978.67
2018-06-02T05:15:31.445Z,99981.05
2018-06-02T05:17:57.703Z,99973.45
2018-06-02T05:20:23.992Z,99977.91
2018-06-02T05:22:51.019Z,99978.02
2018-06-02T05:25:17.290Z,99985.09
2018-06-02T05:27:43.596Z,99983.97
2018-06-02T05:30:10.642Z,99973.05
2018-06-02T05:32:37.731Z,99982.23
2018-06-02T05:35:04.001Z,99980.65
2018-06-02T05:37:30.297Z,99983.95
2018-06-02T05:39:56.626Z,99984.72
2018-06-02T05:42:22.929Z,99987.72
2018-06-02T05:44:50.016Z,99994.23
2018-06-02T05:47:16.340Z,99984.04
2018-06-02T05:49:42.617Z,99982.18
2018-06-02T05:52:08.871Z,99981.34
2018-06-02T05:54:35.187Z,99985.17
2018-06-02T05:57:02.212Z,99977.00
2018-06-02T05:59:28.511Z,99976.72
2018-06-02T06:01:54.766Z,99976.14
2018-06-02T06:04:21.160Z,99979.92
2018-06-02T06:06:47.511Z,99975.80
2018-06-02T06:09:13.791Z,99968.39
2018-06-02T06:11:40.853Z,99977.34
2018-06-02T06:14:07.198Z,99973.41
2018-06-02T06:16:33.464Z,99974.88
2018-06-02T06:18:59.786Z,99973.73
2018-06-02T06:21:26.098Z,99979.09
2018-06-02T06:23:52.370Z,99972.05
2018-06-02T06:26:18.757Z,99975.63
2018-06-02T06:28:45.096Z,99975.52
2018-06-02T06:31:11.431Z,99972.46
2018-06-02T06:33:37.741Z,99968.13
2018-06-02T06:36:04.043Z,99967.89
2018-06-02T06:38:31.098Z,99968.98
2018-06-02T06:40:58.156Z,99975.00
2018-06-02T06:43:24.467Z,99973.31
2018-06-02T06:45:50.806Z,99971.32
2018-06-02T06:48:17.846Z,99964.68
2018-06-02T06:50:44.899Z,99965.59
2018-06-02T06:53:12.005Z,99966.89
2018-06-02T06:55:38.307Z,99967.07
2018-06-02T06:58:04.631Z,99973.35
2018-06-02T07:00:30.974Z,99966.89
2018-06-02T07:02:57.241Z,99961.11
2018-06-02T07:05:23.797Z,99960.41
2018-06-02T07:07:50.882Z,99959.30
2018-06-02T07:10:17.246Z,99957.03
2018-06-02T07:12:43.537Z,99963.91
2018-06-02T07:15:11.537Z,99971.28
2018-06-02T07:17:37.848Z,99960.97
2018-06-02T07:20:04.174Z,99966.23
2018-06-02T07:22:30.450Z,99976.78
2018-06-02T07:24:56.809Z,99971.34
2018-06-02T07:27:23.065Z,99973.02
2018-06-02T07:29:49.475Z,99974.08
2018-06-02T07:32:16.487Z,99983.37
2018-06-02T07:34:42.805Z,99977.87
2018-06-02T07:37:09.102Z,99978.62
2018-06-02T07:39:35.358Z,99982.72
2018-06-02T07:42:01.660Z,99971.23
2018-06-02T07:44:28.041Z,99982.39
2018-06-02T07:46:54.893Z,99975.33
2018-06-02T07:49:21.161Z,99980.52
2018-06-02T07:51:48.179Z,99978.41
2018-06-02T07:54:14.535Z,99985.95
2018-06-02T07:56:41.548Z,99986.84
2018-06-02T07:59:07.814Z,99974.59
2018-06-02T08:01:34.900Z,99984.50
2018-06-02T08:04:01.184Z,99973.88
2018-06-02T08:06:28.218Z,99974.66
2018-06-02T08:08:56.043Z,99991.61
2018-06-02T08:11:22.350Z,99986.16
2018-06-02T08:13:48.631Z,99983.69
2018-06-02T08:16:14.898Z,99986.33
2018-06-02T08:18:41.896Z,99984.66
2018-06-02T08:21:08.168Z,99990.30
2018-06-02T08:23:35.193Z,99993.53
2018-06-02T08:26:01.470Z,99997.27
2018-06-02T08:28:27.759Z,99994.11
2018-06-02T08:30:54.153Z,99996.55
2018-06-02T08:33:20.484Z,100016.27
2018-06-02T08:35:46.783Z,100013.16
2018-06-02T08:38:13.866Z,100021.34
2018-06-02T08:40:40.160Z,100014.25
2018-06-02T08:43:07.230Z,100015.86
2018-06-02T08:45:33.571Z,100019.75
2018-06-02T08:47:59.859Z,100024.85
2018-06-02T08:50:26.915Z,100027.92
2018-06-02T08:52:53.963Z,100028.13
2018-06-02T08:55:20.962Z,100014.09
2018-06-02T08:57:47.222Z,100036.30
2018-06-02T09:00:13.510Z,100037.30
2018-06-02T09:02:39.854Z,100034.80
2018-06-02T09:05:06.105Z,100030.18
2018-06-02T09:07:33.124Z,100021.73
2018-06-02T09:09:59.413Z,100034.59
2018-06-02T09:12:25.739Z,100028.50
2018-06-02T09:14:52.753Z,100024.83
2018-06-02T09:17:19.347Z,100022.55
2018-06-02T09:19:45.620Z,100028.00
2018-06-02T09:22:11.998Z,100021.00
2018-06-02T09:24:38.382Z,100029.85
2018-06-02T09:27:04.685Z,100030.41
2018-06-02T09:29:30.983Z,100023.99
2018-06-02T09:31:58.058Z,100026.06
2018-06-02T09:34:24.391Z,100030.16
2018-06-02T09:36:51.478Z,100027.58
2018-06-02T09:39:17.764Z,100020.79
2018-06-02T09:41:44.347Z,100025.33
2018-06-02T09:44:10.667Z,100023.57
2018-06-02T09:46:36.979Z,100021.08
2018-06-02T09:49:03.326Z,100018.05
2018-06-02T09:51:29.681Z,100026.67
2018-06-02T09:53:56.708Z,100018.67
2018-06-02T09:56:22.991Z,100031.72
2018-06-02T09:58:49.297Z,100024.77
2018-06-02T10:01:15.647Z,100022.83
2018-06-02T10:03:42.381Z,100024.36
2018-06-02T10:06:08.769Z,100019.47
2018-06-02T10:08:35.084Z,100022.82
2018-06-02T10:11:01.395Z,100020.10
2018-06-02T10:13:27.956Z,100023.23
2018-06-02T10:15:54.359Z,100021.47
2018-06-02T10:18:21.106Z,100030.20
2018-06-02T10:20:47.647Z,100025.53
2018-06-02T10:23:13.952Z,100028.92
2018-06-02T10:25:41.132Z,100019.05
2018-06-02T10:28:07.495Z,100032.56
2018-06-02T10:30:33.783Z,100022.97
2018-06-02T10:33:00.099Z,100027.79
2018-06-02T10:35:27.148Z,100028.55
2018-06-02T10:37:54.203Z,100024.81
2018-06-02T10:40:21.381Z,100024.63
2018-06-02T10:42:48.567Z,100024.90
2018-06-02T10:45:14.889Z,100033.78
2018-06-02T10:47:41.309Z,100033.36
2018-06-02T10:50:07.686Z,100028.14
2018-06-02T10:52:34.758Z,100035.94
2018-06-02T10:55:01.051Z,100031.81
2018-06-02T10:57:28.814Z,100030.01
2018-06-02T10:59:55.077Z,100030.52
2018-06-02T11:02:22.098Z,100019.87
2018-06-02T11:04:49.132Z,100033.44
2018-06-02T11:07:15.441Z,100024.09
2018-06-02T11:09:41.805Z,100024.52
2018-06-02T11:12:08.909Z,100039.28
2018-06-02T11:14:35.271Z,100026.42
2018-06-02T11:17:01.583Z,100032.80
2018-06-02T11:19:27.893Z,100036.45
2018-06-02T11:21:54.371Z,100037.03
2018-06-02T11:24:21.485Z,100031.76
2018-06-02T11:26:47.896Z,100037.41
2018-06-02T11:29:14.969Z,100039.87
2018-06-02T11:31:41.351Z,100044.28
2018-06-02T11:34:08.555Z,100051.88
2018-06-02T11:36:34.846Z,100040.41
2018-06-02T11:39:01.872Z,100030.30
2018-06-02T11:41:28.189Z,100028.23
2018-06-02T11:43:54.550Z,100024.84
2018-06-02T11:46:20.836Z,100028.91
2018-06-02T11:48:47.149Z,100020.64
2018-06-02T11:51:13.452Z,100020.96
2018-06-02T11:53:40.473Z,100022.70
2018-06-02T11:56:07.531Z,100023.55
2018-06-02T11:58:33.812Z,100029.80
2018-06-02T12:01:00.162Z,100031.58
2018-06-02T12:03:26.473Z,100024.47
2018-06-02T12:05:52.727Z,100024.77
2018-06-02T12:08:19.089Z,100031.81
2018-06-02T12:10:45.452Z,100027.62
2018-06-02T12:13:11.765Z,100016.08
2018-06-02T12:15:38.900Z,100022.83
2018-06-02T12:18:05.234Z,100018.12
2018-06-02T12:20:32.296Z,100017.45
2018-06-02T12:22:59.472Z,100019.78
2018-06-02T12:25:25.817Z,100026.17
2018-06-02T12:27:52.255Z,100017.00
2018-06-02T12:30:18.591Z,100034.91
2018-06-02T12:32:44.954Z,100025.73
2018-06-02T12:35:11.366Z,100011.29
2018-06-02T12:37:37.740Z,100013.16
2018-06-02T12:40:04.957Z,100014.44
2018-06-02T12:42:31.345Z,100009.69
2018-06-02T12:44:57.789Z,100004.62
2018-06-02T12:47:24.146Z,100017.05
2018-06-02T12:49:50.552Z,100010.08
2018-06-02T12:52:17.235Z,100003.59
2018-06-02T12:54:43.669Z,100005.52
2018-06-02T12:57:10.124Z,99994.91
2018-06-02T12:59:37.302Z,100004.31
2018-06-02T13:02:03.734Z,100009.62
2018-06-02T13:04:30.317Z,99990.25
2018-06-02T13:06:56.667Z,99999.27
2018-06-02T13:09:23.824Z,99997.56
2018-06-02T13:11:50.996Z,100004.05
2018-06-02T13:14:17.400Z,99996.17
2018-06-02T13:16:43.813Z,100002.14
2018-06-02T13:19:10.167Z,99995.61
2018-06-02T13:21:36.499Z,99990.98
2018-06-02T13:24:04.311Z,99988.73
2018-06-02T13:26:30.623Z,99985.02
2018-06-02T13:28:56.957Z,99983.46
2018-06-02T13:31:23.410Z,99988.70
2018-06-02T13:33:49.728Z,99990.66
2018-06-02T13:36:23.079Z,99984.71
2018-06-02T13:38:50.926Z,100007.89
2018-06-02T13:41:18.054Z,99991.84
2018-06-02T13:43:44.405Z,99979.22
2018-06-02T13:46:10.808Z,99975.48
2018-06-02T13:48:37.215Z,99978.91
2018-06-02T13:51:04.296Z,99975.80
2018-06-02T13:53:30.658Z,99975.27
2018-06-02T13:55:57.088Z,99986.30
2018-06-02T13:58:23.387Z,99983.42
2018-06-02T14:00:49.730Z,99966.23
2018-06-02T14:03:16.110Z,99975.19
2018-06-02T14:05:43.174Z,99988.15
2018-06-02T14:08:10.242Z,99979.33
2018-06-02T14:10:37.094Z,99970.14
2018-06-02T14:13:03.396Z,99976.27
2018-06-02T14:15:30.590Z,99976.51
2018-06-02T14:17:57.019Z,99971.67
2018-06-02T14:20:23.340Z,99966.30
2018-06-02T14:22:49.614Z,99972.37
2018-06-02T14:25:15.922Z,99971.87
2018-06-02T14:27:42.779Z,99973.11
2018-06-02T14:30:09.082Z,99979.34
2018-06-02T14:32:35.333Z,99969.64
2018-06-02T14:35:01.665Z,99973.92
2018-06-02T14:37:28.103Z,99974.05
2018-06-02T14:39:54.380Z,99960.70
2018-06-02T14:42:21.390Z,99963.05
2018-06-02T14:44:47.709Z,99974.45
2018-06-02T14:47:14.021Z,99956.61
2018-06-02T14:49:40.444Z,99949.73
2018-06-02T14:52:06.810Z,99954.16
2018-06-02T14:54:33.127Z,99949.80
2018-06-02T14:56:59.503Z,99959.98
2018-06-02T14:59:25.817Z,99964.25
2018-06-02T15:01:52.179Z,99967.62
2018-06-02T15:04:19.209Z,99967.66
2018-06-02T15:06:45.546Z,99971.22
2018-06-02T15:09:12.773Z,99965.12
2018-06-02T15:11:39.103Z,99963.18
2018-06-02T15:14:05.569Z,99953.56
2018-06-02T15:16:31.914Z,99974.90
2018-06-02T15:18:58.253Z,99963.30
2018-06-02T15:21:24.571Z,99955.19
2018-06-02T15:23:51.623Z,99966.62
2018-06-02T15:26:18.717Z,99966.80
2018-06-02T15:28:45.033Z,99967.39
2018-06-02T15:31:11.309Z,99976.52
2018-06-02T15:33:37.870Z,99960.06
2018-06-02T15:36:04.322Z,99963.07
2018-06-02T15:38:30.645Z,99968.48
2018-06-02T15:40:56.944Z,99964.86
2018-06-02T15:43:23.265Z,99972.97
2018-06-02T15:45:49.847Z,99965.14
2018-06-02T15:48:16.224Z,99953.40
2018-06-02T15:50:42.531Z,99954.77
2018-06-02T15:53:08.954Z,99958.06
2018-06-02T15:55:35.280Z,99956.41
2018-06-02T15:58:01.626Z,99949.17
2018-06-02T16:00:28.077Z,99956.81
2018-06-02T16:02:54.456Z,99947.15
2018-06-02T16:05:21.672Z,99950.45
2018-06-02T16:07:48.067Z,99960.00
2018-06-02T16:10:14.421Z,99950.92
2018-06-02T16:12:40.824Z,99945.45
2018-06-02T16:15:07.175Z,99942.94
2018-06-02T16:17:33.472Z,99943.52
2018-06-02T16:19:59.837Z,99961.14
2018-06-02T16:22:26.111Z,99947.98
2018-06-02T16:24:52.487Z,99957.19
2018-06-02T16:27:18.822Z,99952.87
2018-06-02T16:29:45.154Z,99953.59
2018-06-02T16:32:11.496Z,99958.14
2018-06-02T16:34:37.842Z,99954.16
2018-06-02T16:37:04.217Z,99958.97
2018-06-02T16:39:31.380Z,99960.56
2018-06-02T16:41:57.897Z,99962.63
2018-06-02T16:44:25.349Z,99969.44
2018-06-02T16:46:51.684Z,99963.50
2018-06-02T16:49:19.335Z,99961.50
2018-06-02T16:51:46.480Z,99957.59
2018-06-02T16:54:13.683Z,99965.21
2018-06-02T16:56:40.929Z,99960.55
2018-06-02T16:59:09.000Z,99973.65
2018-06-02T17:01:36.019Z,99967.34
2018-06-02T17:04:03.197Z,99975.73
2018-06-02T17:06:30.673Z,99971.06
2018-06-02T17:08:57.848Z,99967.23
2018-06-02T17:11:25.611Z,99960.49
2018-06-02T17:13:51.965Z,99967.61
2018-06-02T17:16:19.132Z,99958.20
2018-06-02T17:18:45.656Z,99973.93
2018-06-02T17:21:12.803Z,99980.20
2018-06-02T17:23:39.973Z,99977.44
2018-06-02T17:26:06.409Z,99982.36
2018-06-02T17:28:33.564Z,99986.45
2018-06-02T17:30:59.895Z,99984.86
2018-06-02T17:33:26.309Z,99984.55
2018-06-02T17:35:53.442Z,99990.45
2018-06-02T17:38:19.825Z,99985.50
2018-06-02T17:40:46.237Z,99984.05
2018-06-02T17:43:13.546Z,99981.03
2018-06-02T17:45:40.045Z,99978.03
2018-06-02T17:48:07.622Z,99978.47
2018-06-02T17:50:34.064Z,99980.06
2018-06-02T17:53:01.136Z,99985.39
2018-06-02T17:55:27.527Z,99975.16
2018-06-02T17:57:53.950Z,99972.16
2018-06-02T18:00:20.547Z,99979.41
2018-06-02T18:02:46.980Z,99975.12
2018-06-02T18:05:13.414Z,99979.48
2018-06-02T18:07:39.895Z,99984.31
2018-06-02T18:10:06.306Z,99992.06
2018-06-02T18:12:33.464Z,99980.78
2018-06-02T18:14:59.872Z,99992.94
2018-06-02T18:17:26.306Z,99987.39
2018-06-02T18:19:53.480Z,99987.50
2018-06-02T18:22:19.872Z,99996.71
2018-06-02T18:24:46.233Z,99986.53
2018-06-02T18:27:13.373Z,99984.88
2018-06-02T18:29:39.866Z,99983.70
2018-06-02T18:32:06.533Z,99978.45
2018-06-02T18:34:32.898Z,99994.67
2018-06-02T18:36:59.262Z,99996.61
2018-06-02T18:39:25.718Z,99992.34
2018-06-02T18:41:53.016Z,99991.16
2018-06-02T18:44:19.654Z,99997.26
2018-06-02T18:46:46.716Z,99996.84
2018-06-02T18:49:13.050Z,99996.10
2018-06-02T18:51:40.322Z,99991.02
2018-06-02T18:54:06.799Z,99989.14
2018-06-02T18:56:33.196Z,99990.84
2018-06-02T18:58:59.560Z,99992.54
2018-06-02T19:01:26.162Z,99997.64
2018-06-02T19:03:52.614Z,99997.75
2018-06-02T19:06:19.312Z,100003.33
2018-06-02T19:08:45.662Z,99999.98
2018-06-02T19:11:12.157Z,100008.48
2018-06-02T19:13:39.324Z,100005.01
2018-06-02T19:16:05.710Z,100006.59
2018-06-02T19:18:32.168Z,100006.36
2018-06-02T19:20:58.642Z,100014.13
2018-06-02T19:23:25.202Z,100012.38
2018-06-02T19:25:51.713Z,100011.03
2018-06-02T19:28:18.182Z,100011.58
2018-06-02T19:30:45.191Z,100006.59
2018-06-02T19:33:11.553Z,100025.31
2018-06-02T19:35:37.856Z,100026.02
2018-06-02T19:38:04.263Z,100026.98
2018-06-02T19:40:31.316Z,100029.50
2018-06-02T19:42:58.420Z,100031.66
2018-06-02T19:45:24.842Z,100021.66
2018-06-02T19:47:51.214Z,100036.30
2018-06-02T19:50:17.556Z,100028.20
2018-06-02T19:52:43.976Z,100027.87
2018-06-02T19:55:10.313Z,100028.28
2018-06-02T19:57:36.659Z,100027.16
2018-06-02T20:00:03.762Z,100028.20
2018-06-02T20:02:30.189Z,100027.34
2018-06-02T20:04:56.546Z,100023.13
2018-06-02T20:07:22.916Z,100022.63
2018-06-02T20:09:50.026Z,100019.86
2018-06-02T20:12:16.457Z,100019.83
2018-06-02T20:14:42.810Z,100016.42
2018-06-02T20:17:09.930Z,100017.41
2018-06-02T20:19:36.365Z,100012.60
2018-06-02T20:22:02.825Z,100014.61
2018-06-02T20:24:29.904Z,100005.17
2018-06-02T20:26:56.256Z,100011.41
2018-06-02T20:29:22.609Z,100015.89
2018-06-02T20:31:49.067Z,100019.35
2018-06-02T20:34:15.477Z,100018.30
2018-06-02T20:36:41.979Z,100016.09
2018-06-02T20:39:08.381Z,100015.03
2018-06-02T20:41:35.422Z,100012.73
2018-06-02T20:44:01.748Z,100012.70
2018-06-02T20:46:28.089Z,100019.08
2018-06-02T20:48:56.218Z,100017.86
2018-06-02T20:51:24.674Z,100019.83
2018-06-02T20:53:51.124Z,100021.77
2018-06-02T20:56:17.535Z,100015.86
2018-06-02T20:58:43.893Z,100023.09
2018-06-02T21:01:10.237Z,100016.84
2018-06-02T21:03:39.363Z,100025.28
2018-06-02T21:06:06.522Z,100022.55
2018-06-02T21:08:32.870Z,100026.38
2018-06-02T21:10:59.915Z,100029.88
2018-06-02T21:13:31.610Z,100034.48
2018-06-02T21:15:58.078Z,100028.97
2018-06-02T21:18:24.408Z,100026.77
2018-06-02T21:20:50.766Z,100030.19
2018-06-02T21:23:17.846Z,100031.10
2018-06-02T21:25:44.155Z,100030.87
2018-06-02T21:28:10.609Z,100043.47
2018-06-02T21:30:36.989Z,100037.74
2018-06-02T21:33:03.413Z,100046.73
2018-06-02T21:35:31.407Z,100046.13
2018-06-02T21:38:02.125Z,100040.76
2018-06-02T21:40:28.451Z,100043.72
2018-06-02T21:42:54.795Z,100047.42
2018-06-02T21:45:21.244Z,100036.98
2018-06-02T21:47:48.322Z,100033.48
2018-06-02T21:50:14.618Z,100042.52
2018-06-02T21:52:41.023Z,100043.09
2018-06-02T21:55:07.442Z,100052.06
2018-06-02T21:57:33.759Z,100052.81
2018-06-02T22:00:00.149Z,100054.41
2018-06-02T22:02:26.480Z,100055.66
2018-06-02T22:04:53.581Z,100055.45
2018-06-02T22:07:19.927Z,100052.58
2018-06-02T22:09:46.235Z,100042.42
2018-06-02T22:12:12.606Z,100041.38
2018-06-02T22:14:39.669Z,100041.30
2018-06-02T22:17:06.741Z,100035.11
2018-06-02T22:19:33.172Z,100037.16
2018-06-02T22:21:59.447Z,100036.53
2018-06-02T22:24:25.754Z,100041.82
2018-06-02T22:26:52.062Z,100034.88
2018-06-02T22:29:20.240Z,100043.41
2018-06-02T22:31:46.529Z,100042.16
2018-06-02T22:34:12.841Z,100043.37
2018-06-02T22:36:39.204Z,100051.98
2018-06-02T22:39:05.503Z,100049.72
2018-06-02T22:41:31.821Z,100047.17
2018-06-02T22:43:58.202Z,100052.18
2018-06-02T22:46:24.583Z,100052.97
2018-06-02T22:48:50.934Z,100050.03
2018-06-02T22:54:43.863Z,100057.62
2018-06-02T22:57:11.571Z,100058.26
2018-06-02T22:59:39.296Z,100060.61
2018-06-02T23:02:07.025Z,100064.25
2018-06-02T23:04:34.659Z,100066.76
2018-06-02T23:07:02.421Z,100073.54
2018-06-02T23:09:30.077Z,100076.55
2018-06-02T23:11:57.765Z,100075.04
2018-06-02T23:14:25.451Z,100076.55
2018-06-02T23:16:53.171Z,100088.69
2018-06-02T23:19:20.778Z,100082.54
2018-06-02T23:21:48.359Z,100089.38
2018-06-02T23:24:15.982Z,100087.52
2018-06-02T23:26:43.682Z,100089.02
2018-06-02T23:29:11.282Z,100078.88
2018-06-02T23:31:38.975Z,100080.39
2018-06-02T23:34:06.606Z,100083.06
2018-06-02T23:36:34.257Z,100093.03
2018-06-02T23:39:01.843Z,100087.72
2018-06-02T23:41:29.415Z,100086.75
2018-06-02T23:43:57.063Z,100088.55
2018-06-02T23:46:24.725Z,100089.73
2018-06-02T23:48:52.450Z,100088.89
2018-06-02T23:51:20.132Z,100082.59
2018-06-02T23:53:47.749Z,100084.39
2018-06-02T23:56:15.525Z,100087.87
2018-06-02T23:58:43.232Z,100089.22
